Time;durP1;ratioP1;P1;durP2;ratioP2;P2;SDS_P1;SDS_P2;PMS_P1;PMS_P2;Temp;Humidity;BMP_temperature;BMP_pressure;BME280_temperature;BME280_humidity;BME280_pressure;Samples;Min_cycle;Max_cycle;Signal;HPM_P1;HPM_P2
2020/12/06 00:00:31;;;;;;;29.80;20.93;;;;;;;2.62;79.89;99543.03;5044009;28;20230;-68
2020/12/06 00:02:57;;;;;;;22.43;15.57;;;;;;;2.59;80.09;99533.50;5044924;28;20666;-69
2020/12/06 00:05:23;;;;;;;19.47;15.90;;;;;;;2.59;80.55;99523.00;5043060;28;20958;-68
2020/12/06 00:07:49;;;;;;;22.17;16.90;;;;;;;2.59;80.78;99528.25;5046788;28;20299;-68
2020/12/06 00:10:17;;;;;;;21.30;16.30;;;;;;;2.58;80.54;99531.78;5049188;28;20674;-69
2020/12/06 00:12:44;;;;;;;21.73;15.53;;;;;;;2.60;80.14;99519.44;5046478;28;20225;-68
2020/12/06 00:15:13;;;;;;;20.73;15.90;;;;;;;2.60;80.27;99527.31;5044127;28;20620;-68
2020/12/06 00:17:39;;;;;;;19.30;15.20;;;;;;;2.60;80.96;99540.47;5049265;28;20209;-68
2020/12/06 00:20:07;;;;;;;22.93;16.03;;;;;;;2.63;81.00;99555.25;5048087;28;20217;-69
2020/12/06 00:22:33;;;;;;;23.67;16.63;;;;;;;2.64;81.13;99557.78;5047815;28;20310;-68
2020/12/06 00:24:59;;;;;;;21.80;16.17;;;;;;;2.64;81.21;99570.94;5046177;28;20214;-68
2020/12/06 00:27:26;;;;;;;21.03;15.60;;;;;;;2.66;80.96;99576.97;5046253;28;20716;-68
2020/12/06 00:29:52;;;;;;;21.90;15.57;;;;;;;2.67;80.54;99577.84;5049814;28;20213;-68
2020/12/06 00:32:18;;;;;;;21.40;15.50;;;;;;;2.67;80.37;99591.81;5047081;28;20670;-68
2020/12/06 00:34:44;;;;;;;27.30;18.47;;;;;;;2.69;81.19;99605.72;5048267;28;20229;-69
2020/12/06 00:37:11;;;;;;;23.87;16.43;;;;;;;2.70;80.53;99602.16;5036685;28;20210;-69
2020/12/06 00:39:38;;;;;;;28.97;19.77;;;;;;;2.71;81.35;99613.53;5042042;28;20212;-68
2020/12/06 00:42:04;;;;;;;29.77;20.63;;;;;;;2.72;81.03;99607.34;5049173;28;20208;-68
2020/12/06 00:44:31;;;;;;;25.33;17.13;;;;;;;2.71;80.94;99600.41;5036016;28;20726;-68
2020/12/06 00:46:58;;;;;;;22.63;16.67;;;;;;;2.69;80.36;99596.97;5046460;28;20212;-68
2020/12/06 00:49:24;;;;;;;23.33;16.17;;;;;;;2.67;81.33;99601.50;5044067;28;20213;-68
2020/12/06 00:51:50;;;;;;;22.57;15.83;;;;;;;2.65;80.88;99601.56;5042615;28;20202;-68
2020/12/06 00:54:16;;;;;;;20.47;15.63;;;;;;;2.65;80.57;99608.59;5041766;28;20236;-68
2020/12/06 00:56:42;;;;;;;19.23;15.47;;;;;;;2.67;80.89;99599.72;5047761;28;20202;-68
2020/12/06 00:59:08;;;;;;;23.43;15.50;;;;;;;2.68;81.16;99590.91;5043928;28;20582;-68
2020/12/06 01:01:39;;;;;;;18.23;14.83;;;;;;;2.68;81.69;99585.66;5048581;28;20308;-68
2020/12/06 01:04:05;;;;;;;23.67;16.53;;;;;;;2.70;81.44;99582.91;5048804;28;20209;-68
2020/12/06 01:06:31;;;;;;;22.40;17.47;;;;;;;2.70;80.94;99575.03;5045992;28;20232;-68
2020/12/06 01:08:57;;;;;;;26.83;17.20;;;;;;;2.70;81.47;99582.91;5046632;28;20198;-68
2020/12/06 01:11:23;;;;;;;20.03;15.60;;;;;;;2.69;81.64;99570.69;5043258;28;20304;-68
2020/12/06 01:13:49;;;;;;;23.53;16.67;;;;;;;2.68;81.42;99564.63;5047765;28;20222;-68
2020/12/06 01:16:15;;;;;;;23.60;15.87;;;;;;;2.66;81.50;99558.56;5047428;28;20234;-68
2020/12/06 01:18:42;;;;;;;21.17;14.33;;;;;;;2.66;80.93;99550.69;5045108;28;20206;-68
2020/12/06 01:21:10;;;;;;;21.53;14.77;;;;;;;2.66;81.73;99547.22;5041988;28;20292;-69
2020/12/06 01:23:36;;;;;;;21.57;15.37;;;;;;;2.66;80.96;99547.22;5032047;28;20199;-68
2020/12/06 01:26:02;;;;;;;23.30;15.13;;;;;;;2.64;81.33;99563.06;5048872;28;20228;-68
2020/12/06 01:28:28;;;;;;;21.13;16.00;;;;;;;2.63;81.89;99561.34;5051696;28;20202;-67
2020/12/06 01:30:54;;;;;;;20.50;15.30;;;;;;;2.64;81.42;99557.78;5037118;28;20216;-68
2020/12/06 01:33:20;;;;;;;20.03;16.23;;;;;;;2.66;81.00;99560.34;5036099;28;20204;-67
2020/12/06 01:35:47;;;;;;;20.17;14.77;;;;;;;2.68;82.06;99566.41;5042659;28;20234;-67
2020/12/06 01:38:13;;;;;;;21.20;14.73;;;;;;;2.69;81.63;99566.28;5046384;28;20209;-67
2020/12/06 01:40:40;;;;;;;19.90;15.97;;;;;;;2.69;81.88;99568.91;5051902;28;20216;-67
2020/12/06 01:43:07;;;;;;;20.03;15.17;;;;;;;2.70;82.03;99560.09;5036431;28;20312;-67
2020/12/06 01:45:33;;;;;;;20.57;14.97;;;;;;;2.69;81.20;99555.78;5043354;28;20641;-67
2020/12/06 01:47:59;;;;;;;22.47;14.43;;;;;;;2.68;81.27;99564.63;5042837;28;20205;-67
2020/12/06 01:50:25;;;;;;;20.80;14.33;;;;;;;2.67;81.57;99570.81;5051334;28;20216;-67
2020/12/06 01:52:52;;;;;;;20.30;15.27;;;;;;;2.67;81.94;99565.53;5051070;28;20606;-67
2020/12/06 01:55:20;;;;;;;24.07;15.33;;;;;;;2.68;81.94;99556.72;5051533;28;20229;-67
2020/12/06 01:57:46;;;;;;;21.13;15.57;;;;;;;2.68;81.31;99554.09;5045678;28;20292;-68
2020/12/06 02:00:12;;;;;;;20.00;14.53;;;;;;;2.66;81.60;99539.31;5038875;28;20206;-67
2020/12/06 02:02:38;;;;;;;22.73;15.23;;;;;;;2.65;81.99;99535.00;5040712;28;20212;-67
2020/12/06 02:05:05;;;;;;;24.57;16.10;;;;;;;2.63;81.55;99529.81;5051934;28;20312;-67
2020/12/06 02:07:32;;;;;;;20.50;14.93;;;;;;;2.61;81.73;99518.50;5036430;28;20197;-67
2020/12/06 02:09:59;;;;;;;22.23;15.97;;;;;;;2.62;81.67;99535.13;5033716;28;20202;-67
2020/12/06 02:12:25;;;;;;;23.50;16.67;;;;;;;2.61;81.49;99541.31;5036632;28;20380;-67
2020/12/06 02:14:51;;;;;;;21.80;15.23;;;;;;;2.62;82.20;99548.28;5041498;28;20312;-67
2020/12/06 02:17:17;;;;;;;20.77;15.47;;;;;;;2.63;82.19;99547.34;5047732;28;20212;-67
2020/12/06 02:19:43;;;;;;;22.50;15.80;;;;;;;2.63;81.81;99542.09;5045126;28;20214;-66
2020/12/06 02:22:10;;;;;;;26.13;16.10;;;;;;;2.63;82.55;99540.31;5040279;28;20217;-67
2020/12/06 02:24:36;;;;;;;24.37;17.03;;;;;;;2.63;82.53;99547.34;5039449;28;20245;-67
2020/12/06 02:27:02;;;;;;;26.57;17.37;;;;;;;2.63;82.35;99539.47;5044430;28;20220;-66
2020/12/06 02:29:28;;;;;;;24.50;15.90;;;;;;;2.64;81.98;99533.28;5044162;28;20205;-67
2020/12/06 02:31:54;;;;;;;25.20;17.23;;;;;;;2.65;82.80;99527.09;5034889;28;20233;-67
2020/12/06 02:34:21;;;;;;;24.03;16.30;;;;;;;2.66;82.45;99524.41;5031140;28;20226;-67
2020/12/06 02:36:47;;;;;;;22.03;16.20;;;;;;;2.68;82.02;99525.19;5039234;28;20225;-67
2020/12/06 02:39:14;;;;;;;21.93;16.10;;;;;;;2.69;82.49;99528.63;5039858;28;20210;-67
2020/12/06 02:41:41;;;;;;;25.20;17.23;;;;;;;2.71;82.91;99538.16;5035095;28;20214;-67
2020/12/06 02:44:09;;;;;;;25.47;15.90;;;;;;;2.73;82.32;99540.72;5044022;28;20233;-67
2020/12/06 02:46:35;;;;;;;25.07;16.43;;;;;;;2.72;82.33;99539.84;5050089;28;20812;-67
2020/12/06 02:49:02;;;;;;;21.97;15.90;;;;;;;2.74;82.47;99539.78;5048918;28;20204;-67
2020/12/06 02:51:28;;;;;;;25.73;15.93;;;;;;;2.73;82.77;99541.56;5045373;28;20216;-67
2020/12/06 02:53:55;;;;;;;26.60;17.07;;;;;;;2.71;82.06;99532.91;5031029;28;20225;-67
2020/12/06 02:56:22;;;;;;;24.27;17.17;;;;;;;2.71;82.54;99521.53;5038423;28;20898;-67
2020/12/06 02:58:48;;;;;;;23.47;15.60;;;;;;;2.71;82.21;99524.16;5043901;28;20228;-66
2020/12/06 03:01:14;;;;;;;22.63;16.63;;;;;;;2.70;83.00;99519.81;5040928;28;20579;-67
2020/12/06 03:03:41;;;;;;;25.37;16.83;;;;;;;2.68;82.43;99509.41;5055148;28;20208;-67
2020/12/06 03:06:07;;;;;;;26.03;17.93;;;;;;;2.68;82.49;99511.19;5050328;28;20220;-67
2020/12/06 03:08:34;;;;;;;27.93;18.10;;;;;;;2.65;82.49;99512.19;5050057;28;20208;-67
2020/12/06 03:11:00;;;;;;;28.83;17.97;;;;;;;2.64;82.36;99518.38;5047457;28;20220;-67
2020/12/06 03:13:27;;;;;;;28.60;18.43;;;;;;;2.64;82.61;99514.88;5050054;28;20201;-66
2020/12/06 03:15:53;;;;;;;28.23;18.50;;;;;;;2.64;82.81;99523.63;5051839;28;20229;-67
2020/12/06 03:18:19;;;;;;;29.17;17.17;;;;;;;2.65;83.03;99517.44;5057590;28;20211;-67
2020/12/06 03:20:45;;;;;;;31.00;18.03;;;;;;;2.66;82.80;99503.38;5052538;28;20206;-67
2020/12/06 03:23:11;;;;;;;28.83;18.07;;;;;;;2.66;83.42;99499.88;5056999;28;20211;-67
2020/12/06 03:25:37;;;;;;;31.87;18.77;;;;;;;2.67;82.93;99493.72;5042011;28;20344;-67
2020/12/06 03:28:03;;;;;;;26.30;17.97;;;;;;;2.68;82.91;99480.50;5043787;28;20209;-67
2020/12/06 03:30:30;;;;;;;31.90;18.93;;;;;;;2.68;83.34;99483.13;5055746;28;20214;-67
2020/12/06 03:32:56;;;;;;;30.23;19.30;;;;;;;2.70;83.34;99483.88;5049545;28;20206;-67
2020/12/06 03:35:22;;;;;;;29.77;17.93;;;;;;;2.70;82.87;99480.38;5041539;28;20229;-67
2020/12/06 03:37:48;;;;;;;27.93;18.10;;;;;;;2.71;83.19;99482.94;5041965;28;20201;-67
2020/12/06 03:40:14;;;;;;;33.13;18.80;;;;;;;2.73;83.14;99477.63;5038821;28;20218;-67
2020/12/06 03:42:40;;;;;;;26.93;18.93;;;;;;;2.72;82.88;99479.38;5040570;28;20205;-67
2020/12/06 03:45:06;;;;;;;33.83;19.20;;;;;;;2.73;83.50;99478.47;5050156;28;20230;-67
2020/12/06 03:47:33;;;;;;;28.47;18.87;;;;;;;2.75;83.12;99486.28;5050486;28;20212;-67
2020/12/06 03:49:59;;;;;;;31.70;19.33;;;;;;;2.76;82.67;99487.97;5050467;28;20227;-67
2020/12/06 03:52:25;;;;;;;27.73;18.70;;;;;;;2.76;83.66;99493.25;5047977;28;20201;-67
2020/12/06 03:54:51;;;;;;;25.53;17.90;;;;;;;2.77;82.68;99498.44;5051774;28;20718;-66
2020/12/06 03:57:17;;;;;;;28.53;18.73;;;;;;;2.78;83.66;99496.66;5047201;28;20295;-66
2020/12/06 03:59:43;;;;;;;31.73;19.10;;;;;;;2.77;83.43;99500.19;5042789;28;20212;-67
2020/12/06 04:02:09;;;;;;;31.90;18.47;;;;;;;2.77;82.85;99493.16;5055522;28;20662;-67
2020/12/06 04:04:36;;;;;;;28.80;19.00;;;;;;;2.78;83.69;99481.72;5055054;28;20714;-67
2020/12/06 04:07:02;;;;;;;30.27;19.13;;;;;;;2.80;83.36;99481.66;5036814;28;20209;-67
2020/12/06 04:09:28;;;;;;;29.67;18.73;;;;;;;2.81;83.07;99475.47;5049118;28;20223;-67
2020/12/06 04:11:54;;;;;;;30.53;18.47;;;;;;;2.83;82.93;99475.38;5040077;28;20225;-67
2020/12/06 04:14:20;;;;;;;31.37;18.07;;;;;;;2.83;82.88;99467.50;5052427;28;20210;-67
2020/12/06 04:16:46;;;;;;;30.40;18.73;;;;;;;2.83;82.91;99483.28;5035349;28;20214;-66
2020/12/06 04:19:12;;;;;;;32.37;18.37;;;;;;;2.84;82.87;99488.47;5033923;28;20216;-67
2020/12/06 04:21:39;;;;;;;32.93;19.57;;;;;;;2.86;82.84;99481.34;5045305;28;20212;-67
2020/12/06 04:24:05;;;;;;;30.70;17.60;;;;;;;2.86;82.98;99483.13;5039019;28;20889;-66
2020/12/06 04:26:31;;;;;;;28.53;17.27;;;;;;;2.88;83.14;99491.75;5043689;28;20313;-67
2020/12/06 04:28:57;;;;;;;27.73;17.40;;;;;;;2.89;82.71;99489.06;5033794;28;20218;-67
2020/12/06 04:31:23;;;;;;;27.27;16.70;;;;;;;2.91;82.65;99486.34;5034009;28;20217;-67
2020/12/06 04:33:50;;;;;;;31.80;18.73;;;;;;;2.90;83.25;99489.91;5032197;28;20209;-67
2020/12/06 04:36:16;;;;;;;26.70;17.63;;;;;;;2.91;82.79;99481.94;5034385;28;20249;-67
2020/12/06 04:38:42;;;;;;;28.77;16.90;;;;;;;2.92;82.81;99467.03;5033640;28;20289;-67
2020/12/06 04:41:09;;;;;;;30.30;18.63;;;;;;;2.91;82.74;99460.06;5051337;28;20563;-67
2020/12/06 04:43:36;;;;;;;27.10;17.57;;;;;;;2.93;83.16;99474.84;5044819;28;20198;-67
2020/12/06 04:46:02;;;;;;;27.10;17.43;;;;;;;2.92;83.57;99462.63;5046972;28;20709;-67
2020/12/06 04:48:50;;;;;;;32.07;18.27;;;;;;;2.93;83.20;99459.06;5033846;28;20217;-68
2020/12/06 04:51:17;;;;;;;31.33;18.53;;;;;;;2.92;83.17;99451.25;5050421;28;20205;-67
2020/12/06 04:53:53;;;;;;;31.80;17.53;;;;;;;2.93;83.34;99456.44;5046547;28;20210;-68
2020/12/06 04:56:22;;;;;;;34.87;18.60;;;;;;;2.93;83.43;99442.44;5031791;28;20233;-67
2020/12/06 04:58:51;;;;;;;29.60;17.77;;;;;;;2.93;83.33;99437.16;5043119;28;20216;-68
2020/12/06 05:01:19;;;;;;;30.63;18.53;;;;;;;2.91;83.53;99431.13;5038673;28;20206;-67
2020/12/06 05:03:51;;;;;;;30.03;19.27;;;;;;;2.90;82.71;99426.78;5048407;28;20674;-68
2020/12/06 05:06:19;;;;;;;35.87;19.83;;;;;;;2.91;83.23;99434.59;5033526;28;20225;-68
2020/12/06 05:08:46;;;;;;;34.03;19.53;;;;;;;2.93;83.14;99429.28;5032757;28;20206;-67
2020/12/06 05:11:13;;;;;;;32.13;19.57;;;;;;;2.92;82.89;99424.94;5046828;28;20201;-67
2020/12/06 05:13:39;;;;;;;31.80;19.00;;;;;;;2.92;83.21;99424.94;5045396;28;20582;-68
2020/12/06 05:16:09;;;;;;;30.27;18.53;;;;;;;2.92;83.64;99436.31;5050724;28;20225;-67
2020/12/06 05:18:35;;;;;;;33.57;19.43;;;;;;;2.93;83.88;99431.91;5048134;28;20281;-67
2020/12/06 05:21:01;;;;;;;30.80;19.27;;;;;;;2.94;83.40;99430.97;5035749;28;20206;-68
2020/12/06 05:23:28;;;;;;;30.07;18.10;;;;;;;2.95;83.52;99427.41;5045498;28;20214;-68
2020/12/06 05:25:55;;;;;;;29.90;18.10;;;;;;;2.95;83.59;99436.16;5040520;28;20707;-68
2020/12/06 05:28:22;;;;;;;29.07;17.63;;;;;;;2.97;83.20;99417.69;5051161;28;20206;-68
2020/12/06 05:30:48;;;;;;;34.53;20.00;;;;;;;2.96;83.59;99400.19;5038084;28;20211;-68
2020/12/06 05:33:16;;;;;;;30.43;18.20;;;;;;;2.96;83.16;99434.38;5051187;28;20202;-68
2020/12/06 05:35:43;;;;;;;29.57;17.80;;;;;;;2.96;83.41;99450.16;5046068;28;20647;-68
2020/12/06 05:38:09;;;;;;;29.63;17.63;;;;;;;2.96;83.98;99439.66;5039564;28;20210;-68
2020/12/06 05:40:44;;;;;;;32.63;18.13;;;;;;;2.97;84.07;99433.47;5037102;28;20223;-67
2020/12/06 05:43:11;;;;;;;32.53;19.47;;;;;;;2.99;83.88;99432.44;5049586;28;20661;-68
2020/12/06 05:45:37;;;;;;;30.70;18.10;;;;;;;2.99;83.62;99453.50;5050621;28;20225;-68
2020/12/06 05:48:05;;;;;;;32.90;18.67;;;;;;;2.99;84.11;99432.44;5052906;28;20223;-68
2020/12/06 05:50:31;;;;;;;31.03;17.60;;;;;;;2.98;83.70;99424.63;5051143;28;20202;-68
2020/12/06 05:52:58;;;;;;;33.23;18.80;;;;;;;2.99;83.98;99421.94;5035304;28;20202;-68
2020/12/06 05:55:25;;;;;;;30.10;17.63;;;;;;;2.99;83.51;99416.66;5037989;28;20221;-68
2020/12/06 05:57:52;;;;;;;29.93;18.77;;;;;;;2.99;83.73;99432.44;5033983;28;20573;-68
2020/12/06 06:00:20;;;;;;;31.23;18.10;;;;;;;3.01;83.38;99429.75;5042182;28;20207;-68
2020/12/06 06:02:46;;;;;;;33.97;18.83;;;;;;;3.00;84.06;99425.41;5036643;28;20690;-68
2020/12/06 06:05:17;;;;;;;26.20;17.40;;;;;;;2.99;83.58;99426.34;5039344;28;20214;-67
2020/12/06 06:07:47;;;;;;;31.40;18.67;;;;;;;2.96;84.17;99424.72;5049784;28;20206;-68
2020/12/06 06:10:18;;;;;;;33.97;18.77;;;;;;;2.99;83.98;99439.50;5037234;28;20629;-68
2020/12/06 06:12:47;;;;;;;39.10;20.70;;;;;;;2.99;83.66;99434.22;5050782;28;20548;-68
2020/12/06 06:15:14;;;;;;;30.27;18.70;;;;;;;2.99;84.03;99431.59;5037134;28;20240;-67
2020/12/06 06:17:42;;;;;;;32.20;18.50;;;;;;;2.99;83.63;99429.81;5047142;28;20616;-68
2020/12/06 06:20:08;;;;;;;30.27;18.50;;;;;;;2.98;84.12;99416.75;5044318;28;20216;-68
2020/12/06 06:22:39;;;;;;;32.47;18.80;;;;;;;2.97;83.28;99415.03;5041665;28;20340;-68
2020/12/06 06:25:06;;;;;;;33.80;18.73;;;;;;;2.94;83.45;99402.06;5034214;28;20214;-68
2020/12/06 06:27:34;;;;;;;34.63;19.60;;;;;;;2.93;83.52;99413.50;5039614;28;20208;-68
2020/12/06 06:30:00;;;;;;;35.30;19.23;;;;;;;2.90;83.90;99414.50;5045981;28;20684;-68
2020/12/06 06:32:28;;;;;;;36.30;19.27;;;;;;;2.90;83.31;99405.75;5033921;28;20210;-68
2020/12/06 06:34:56;;;;;;;31.53;18.23;;;;;;;2.90;84.06;99408.38;5045582;28;20708;-68
2020/12/06 06:37:28;;;;;;;35.53;19.60;;;;;;;2.90;83.91;99421.53;5038945;28;20234;-68
2020/12/06 06:39:59;;;;;;;32.70;18.90;;;;;;;2.90;83.71;99418.91;5032599;28;21618;-70
2020/12/06 06:42:26;;;;;;;37.97;21.33;;;;;;;2.87;83.40;99409.41;5035254;28;20217;-68
2020/12/06 06:45:01;;;;;;;36.60;20.77;;;;;;;2.88;83.95;99418.13;5042294;28;20229;-68
2020/12/06 06:47:28;;;;;;;36.23;20.43;;;;;;;2.87;83.85;99426.94;5043477;28;20566;-67
2020/12/06 06:49:57;;;;;;;29.03;18.13;;;;;;;2.86;83.85;99412.97;5044617;28;20686;-68
2020/12/06 06:52:25;;;;;;;37.07;19.47;;;;;;;2.87;83.74;99413.81;5047412;28;20216;-66
2020/12/06 06:54:52;;;;;;;32.57;18.80;;;;;;;2.86;83.73;99427.91;5050335;28;20625;-68
2020/12/06 06:57:20;;;;;;;35.50;19.57;;;;;;;2.88;83.65;99439.16;5048981;28;20216;-68
2020/12/06 06:59:48;;;;;;;33.90;19.73;;;;;;;2.88;84.26;99439.16;5043729;28;20234;-69
2020/12/06 07:02:25;;;;;;;32.00;19.33;;;;;;;2.90;84.52;99434.69;5049323;28;20972;-68
2020/12/06 07:04:51;;;;;;;36.13;20.20;;;;;;;2.90;84.22;99435.53;5044766;28;20269;-68
2020/12/06 07:07:36;;;;;;;34.70;19.33;;;;;;;2.89;84.25;99423.31;5049678;28;20223;-69
2020/12/06 07:10:03;;;;;;;32.87;19.57;;;;;;;2.90;83.86;99413.66;5048174;28;20205;-67
2020/12/06 07:12:36;;;;;;;34.07;20.40;;;;;;;2.90;84.04;99416.28;5044880;28;20197;-67
2020/12/06 07:15:05;;;;;;;32.33;19.17;;;;;;;2.89;84.15;99409.31;5043942;28;20284;-68
2020/12/06 07:17:31;;;;;;;36.20;19.93;;;;;;;2.89;84.25;99414.56;5046996;28;21623;-68
2020/12/06 07:19:58;;;;;;;32.57;18.83;;;;;;;2.89;83.84;99410.16;5045618;28;20205;-68
2020/12/06 07:22:25;;;;;;;34.60;20.43;;;;;;;2.90;84.27;99418.91;5041578;28;20219;-67
2020/12/06 07:24:51;;;;;;;35.67;18.70;;;;;;;2.89;83.86;99391.75;5047210;28;20228;-71
2020/12/06 07:27:17;;;;;;;37.10;19.53;;;;;;;2.88;83.76;99376.06;5044679;28;20300;-68
2020/12/06 07:29:43;;;;;;;35.30;19.40;;;;;;;2.86;84.19;99373.53;5043453;28;20213;-67
2020/12/06 07:32:09;;;;;;;35.83;20.97;;;;;;;2.85;84.17;99363.09;5046973;28;20268;-68
2020/12/06 07:34:35;;;;;;;37.80;20.63;;;;;;;2.83;84.52;99370.22;5040613;28;20716;-70
2020/12/06 07:37:02;;;;;;;38.20;22.00;;;;;;;2.81;83.88;99364.19;5034446;28;20230;-68
2020/12/06 07:39:29;;;;;;;34.53;20.10;;;;;;;2.81;84.02;99364.19;5040797;28;20194;-68
2020/12/06 07:41:55;;;;;;;36.07;20.00;;;;;;;2.80;84.07;99365.97;5042858;28;20692;-68
2020/12/06 07:44:21;;;;;;;36.07;19.70;;;;;;;2.79;84.20;99373.00;5042949;28;20586;-68
2020/12/06 07:46:59;;;;;;;36.67;20.70;;;;;;;2.80;84.60;99373.84;5047672;28;20204;-68
2020/12/06 07:49:25;;;;;;;36.53;19.60;;;;;;;2.79;83.95;99383.50;5047421;28;20202;-68
2020/12/06 07:51:51;;;;;;;34.23;20.13;;;;;;;2.79;84.66;99391.41;5046193;28;20209;-68
2020/12/06 07:54:17;;;;;;;38.83;21.40;;;;;;;2.80;84.07;99394.88;5049982;28;20216;-68
2020/12/06 07:56:50;;;;;;;38.03;21.03;;;;;;;2.79;84.85;99378.25;5047677;28;20252;-68
2020/12/06 07:59:21;;;;;;;36.40;20.40;;;;;;;2.81;84.94;99356.28;5049587;28;20238;-68
2020/12/06 08:01:48;;;;;;;38.97;20.93;;;;;;;2.79;84.44;99344.06;5049857;28;20206;-68
2020/12/06 08:04:19;;;;;;;35.57;20.43;;;;;;;2.78;84.40;99362.56;5033142;28;20750;-69
2020/12/06 08:06:49;;;;;;;36.40;20.67;;;;;;;2.79;84.10;99364.25;5041157;28;20206;-68
2020/12/06 08:09:17;;;;;;;32.70;20.83;;;;;;;2.80;84.12;99363.34;5044789;28;20210;-67
2020/12/06 08:11:46;;;;;;;35.70;20.77;;;;;;;2.81;84.59;99366.81;5046898;28;20209;-67
2020/12/06 08:14:18;;;;;;;32.93;18.83;;;;;;;2.81;84.10;99365.03;5041687;28;20281;-68
2020/12/06 08:16:55;;;;;;;37.23;20.27;;;;;;;2.82;84.85;99355.38;5044838;28;20252;-69
2020/12/06 08:19:23;;;;;;;40.80;21.00;;;;;;;2.83;84.63;99336.88;5047632;28;20200;-68
2020/12/06 08:21:50;;;;;;;35.87;20.67;;;;;;;2.84;84.83;99332.47;5046981;28;20202;-67
2020/12/06 08:24:20;;;;;;;43.03;22.10;;;;;;;2.83;83.94;99323.75;5040022;28;20206;-67
2020/12/06 08:26:47;;;;;;;40.50;20.93;;;;;;;2.83;84.38;99322.88;5036550;28;20217;-68
2020/12/06 08:29:14;;;;;;;38.07;21.17;;;;;;;2.83;84.79;99320.25;5048051;28;20212;-68
2020/12/06 08:31:40;;;;;;;40.30;21.67;;;;;;;2.81;84.37;99319.50;5041827;28;20213;-67
2020/12/06 08:34:10;;;;;;;41.00;22.80;;;;;;;2.81;84.75;99332.63;5046712;28;20667;-67
2020/12/06 08:36:37;;;;;;;40.00;22.07;;;;;;;2.81;84.32;99337.88;5042002;28;20221;-67
2020/12/06 08:39:14;;;;;;;36.47;20.20;;;;;;;2.83;83.97;99341.28;5033600;28;20240;-67
2020/12/06 08:41:40;;;;;;;39.90;22.93;;;;;;;2.84;84.20;99357.00;5043474;28;20919;-68
2020/12/06 08:44:07;;;;;;;37.23;21.50;;;;;;;2.85;84.65;99348.19;5042960;28;20687;-67
2020/12/06 08:46:34;;;;;;;36.47;21.20;;;;;;;2.86;84.90;99343.75;5049703;28;20229;-68
2020/12/06 08:49:01;;;;;;;39.90;22.40;;;;;;;2.88;83.93;99336.63;5047670;28;20202;-68
2020/12/06 08:51:30;;;;;;;36.67;21.57;;;;;;;2.88;84.07;99349.75;5047785;28;20202;-66
2020/12/06 08:53:57;;;;;;;36.47;21.23;;;;;;;2.89;84.30;99347.06;5038875;28;20214;-68
2020/12/06 08:56:30;;;;;;;39.07;21.83;;;;;;;2.90;84.58;99342.66;5049423;28;20221;-68
2020/12/06 08:59:02;;;;;;;43.07;22.23;;;;;;;2.91;84.23;99325.94;5047310;28;20209;-67
2020/12/06 09:01:29;;;;;;;39.57;21.80;;;;;;;2.93;84.61;99331.97;5050065;28;20198;-68
2020/12/06 09:03:55;;;;;;;34.20;20.83;;;;;;;2.93;84.77;99335.47;5044602;28;20646;-67
2020/12/06 09:06:21;;;;;;;40.13;22.73;;;;;;;2.96;84.84;99337.06;5047490;28;20222;-67
2020/12/06 09:08:47;;;;;;;43.43;21.97;;;;;;;2.97;84.21;99336.16;5032640;28;20213;-67
2020/12/06 09:11:15;;;;;;;41.13;21.67;;;;;;;2.99;84.67;99334.28;5046681;28;20210;-67
2020/12/06 09:13:41;;;;;;;41.37;23.77;;;;;;;3.02;84.74;99336.75;5049764;28;20646;-67
2020/12/06 09:16:07;;;;;;;36.70;22.60;;;;;;;3.04;84.38;99319.97;5047559;28;20222;-67
2020/12/06 09:18:34;;;;;;;41.23;21.93;;;;;;;3.08;84.49;99336.41;5042669;28;20205;-68
2020/12/06 09:21:00;;;;;;;37.47;21.93;;;;;;;3.09;84.30;99338.13;5043375;28;20210;-67
2020/12/06 09:23:26;;;;;;;38.37;21.90;;;;;;;3.10;84.12;99355.59;5044078;28;20205;-68
2020/12/06 09:25:52;;;;;;;40.07;22.47;;;;;;;3.11;84.36;99362.56;5049532;28;20231;-68
2020/12/06 09:28:18;;;;;;;39.03;21.97;;;;;;;3.11;84.33;99362.56;5033862;28;20546;-68
2020/12/06 09:30:44;;;;;;;35.77;21.70;;;;;;;3.12;84.38;99351.09;5040566;28;20582;-68
2020/12/06 09:33:10;;;;;;;36.40;21.40;;;;;;;3.14;84.57;99354.50;5050876;28;20225;-68
2020/12/06 09:35:37;;;;;;;40.37;22.43;;;;;;;3.14;84.67;99346.63;5046603;28;20236;-68
2020/12/06 09:38:03;;;;;;;39.03;22.23;;;;;;;3.15;84.16;99337.78;5036163;28;20202;-67
2020/12/06 09:40:29;;;;;;;42.23;22.33;;;;;;;3.18;84.70;99339.41;5031204;28;20780;-67
2020/12/06 09:42:55;;;;;;;36.27;22.53;;;;;;;3.19;83.84;99344.59;5031110;28;20205;-69
2020/12/06 09:45:21;;;;;;;39.53;22.63;;;;;;;3.21;84.37;99337.47;5041771;28;20226;-67
2020/12/06 09:47:47;;;;;;;40.30;22.40;;;;;;;3.22;83.72;99347.06;5033862;28;20202;-68
2020/12/06 09:50:13;;;;;;;39.10;22.27;;;;;;;3.21;83.75;99334.84;5040695;28;20209;-67
2020/12/06 09:52:40;;;;;;;37.60;22.57;;;;;;;3.22;83.51;99344.44;5036734;28;20206;-68
2020/12/06 09:55:06;;;;;;;40.63;22.47;;;;;;;3.24;83.82;99332.03;5033114;28;20230;-67
2020/12/06 09:57:32;;;;;;;40.27;22.40;;;;;;;3.25;83.95;99335.50;5052032;28;20198;-70
2020/12/06 09:59:58;;;;;;;36.20;21.30;;;;;;;3.25;83.96;99323.19;5033252;28;20202;-68
2020/12/06 10:02:24;;;;;;;39.60;22.03;;;;;;;3.28;84.03;99312.50;5031426;28;20210;-68
2020/12/06 10:04:50;;;;;;;38.57;22.47;;;;;;;3.28;84.30;99301.97;5044363;28;20222;-68
2020/12/06 10:07:16;;;;;;;43.83;22.77;;;;;;;3.27;83.79;99302.91;5037211;28;20296;-67
2020/12/06 10:09:43;;;;;;;43.27;22.53;;;;;;;3.27;84.26;99313.44;5032592;28;20364;-68
2020/12/06 10:12:09;;;;;;;40.50;23.13;;;;;;;3.29;83.74;99318.63;5042379;28;20207;-69
2020/12/06 10:14:35;;;;;;;44.07;23.13;;;;;;;3.29;83.91;99308.94;5043773;28;20229;-68
2020/12/06 10:17:01;;;;;;;38.07;21.30;;;;;;;3.30;83.36;99304.53;5046527;28;20598;-68
2020/12/06 10:19:27;;;;;;;36.13;21.00;;;;;;;3.30;83.37;99299.28;5034393;28;20213;-68
2020/12/06 10:21:53;;;;;;;40.47;23.13;;;;;;;3.32;83.57;99287.72;5043031;28;20213;-67
2020/12/06 10:24:19;;;;;;;38.60;22.23;;;;;;;3.33;83.86;99292.06;5041708;28;20249;-68
2020/12/06 10:26:51;;;;;;;39.67;23.13;;;;;;;3.35;83.37;99298.09;5035041;28;20206;-68
2020/12/06 10:29:17;;;;;;;38.53;22.93;;;;;;;3.37;83.28;99311.16;5039858;28;20201;-68
2020/12/06 10:31:43;;;;;;;42.90;23.80;;;;;;;3.40;83.58;99293.41;5040438;28;20293;-69
2020/12/06 10:34:09;;;;;;;38.23;23.20;;;;;;;3.41;83.11;99295.09;5038900;28;20206;-68
2020/12/06 10:36:35;;;;;;;36.13;21.47;;;;;;;3.43;83.02;99293.22;5048226;28;20229;-68
2020/12/06 10:39:01;;;;;;;44.23;23.00;;;;;;;3.46;83.27;99297.47;5047025;28;20657;-68
2020/12/06 10:41:27;;;;;;;37.47;22.83;;;;;;;3.45;83.39;99294.00;5041496;28;20212;-68
2020/12/06 10:43:54;;;;;;;39.57;21.83;;;;;;;3.43;83.57;99295.88;5042878;28;20288;-68
2020/12/06 10:46:25;;;;;;;42.90;22.50;;;;;;;3.42;83.12;99286.28;5041857;28;20226;-69
2020/12/06 10:48:51;;;;;;;39.43;22.47;;;;;;;3.42;83.69;99286.28;5029175;28;20213;-69
2020/12/06 10:51:17;;;;;;;40.43;21.60;;;;;;;3.43;83.20;99284.50;5046637;28;20201;-69
2020/12/06 10:53:43;;;;;;;38.27;22.63;;;;;;;3.44;83.39;99279.16;5044033;28;20232;-69
2020/12/06 10:56:10;;;;;;;39.97;21.00;;;;;;;3.45;83.48;99270.31;5043599;28;20256;-69
2020/12/06 10:58:36;;;;;;;41.53;22.80;;;;;;;3.43;83.63;99266.06;5047156;28;20204;-69
2020/12/06 11:01:03;;;;;;;43.63;23.50;;;;;;;3.43;83.21;99274.81;5049683;28;20201;-69
2020/12/06 11:03:29;;;;;;;40.57;23.80;;;;;;;3.44;83.14;99286.19;5043624;28;20592;-68
2020/12/06 11:05:55;;;;;;;39.10;22.57;;;;;;;3.46;83.65;99274.66;5048194;28;20226;-69
2020/12/06 11:08:24;;;;;;;38.63;22.63;;;;;;;3.46;83.03;99261.47;5046301;28;20202;-70
2020/12/06 11:10:50;;;;;;;40.87;23.17;;;;;;;3.47;82.88;99260.56;5041546;28;20219;-68
2020/12/06 11:13:16;;;;;;;42.53;24.30;;;;;;;3.47;83.67;99263.19;5039834;28;20225;-69
2020/12/06 11:15:42;;;;;;;42.43;22.80;;;;;;;3.48;82.98;99257.00;5048046;28;20233;-69
2020/12/06 11:18:09;;;;;;;42.70;23.20;;;;;;;3.51;83.59;99257.75;5050319;28;20595;-69
2020/12/06 11:20:36;;;;;;;36.87;21.60;;;;;;;3.51;83.60;99263.00;5041241;28;20201;-69
2020/12/06 11:23:02;;;;;;;44.57;22.40;;;;;;;3.50;82.77;99249.00;5045369;28;20198;-68